Creston Municipal Airport
Saturday 12:15 AM
Weather Clear
Temperature 36°
Dew Point 28°
Feels Like 32°
Relative Humidity 75
%
Visibility 10
mi
Pressure 1010.2
mb
Wind Direction SSW
Wind Speed 5
mph
Last Hour Precip 0.00
"
KCSQ 270615Z AUTO 21004KT 10SM CLR 02/M02 A2983 RMK AO2

Recent Observations

Time Present Weather Temp DP Feels RH% Vsby Pressure Ceiling Direction Speed Gust 1h Precip
12:15AM
VFR
36° 28° 32° 75
%
10
mi
1010.2
mb
None SSW 5
mph
0.00"
KCSQ 270615Z AUTO 21004KT 10SM CLR 02/M02 A2983 RMK AO2
11:55PM
VFR
34° 28° 30° 80
%
10
mi
1010.5
mb
None SW 5
mph
0.00"
KCSQ 270555Z AUTO 22004KT 10SM CLR 01/M02 A2984 RMK AO2
11:35PM
VFR
34° 28° 27° 80
%
10
mi
1010.5
mb
None SSW 8
mph
0.00"
KCSQ 270535Z AUTO 20007KT 10SM CLR 01/M02 A2984 RMK AO2
11:15PM
VFR
36° 28° 30° 75
%
10
mi
1010.5
mb
None SSW 7
mph
0.00"
KCSQ 270515Z AUTO 20006KT 10SM CLR 02/M02 A2984 RMK AO2
10:55PM
VFR
36° 28° 30° 75
%
10
mi
1010.5
mb
None SSW 7
mph
0.00"
KCSQ 270455Z AUTO 20006KT 10SM CLR 02/M02 A2984 RMK AO2
10:35PM
VFR
36° 28° 32° 75
%
10
mi
1010.5
mb
None SSW 5
mph
0.00"
KCSQ 270435Z AUTO 20004KT 10SM CLR 02/M02 A2984 RMK AO2
10:15PM
VFR
36° 28° 31° 75
%
10
mi
1010.5
mb
None S 6
mph
0.00"
KCSQ 270415Z AUTO 19005KT 10SM CLR 02/M02 A2984 RMK AO2
9:55PM
VFR
36° 28° 32° 75
%
10
mi
1010.8
mb
None S 5
mph
0.00"
KCSQ 270355Z AUTO 19004KT 10SM CLR 02/M02 A2985 RMK AO2
9:35PM
VFR
36° 28° 31° 75
%
10
mi
1010.8
mb
None S 6
mph
0.00"
KCSQ 270335Z AUTO 19005KT 10SM CLR 02/M02 A2985 RMK AO2
9:15PM
VFR
36° 28° 29° 75
%
10
mi
1010.8
mb
None S 9
mph
0.00"
KCSQ 270315Z AUTO 19008KT 10SM CLR 02/M02 A2985 RMK AO2
8:55PM
VFR
36° 28° 30° 75
%
10
mi
1011.2
mb
None S 7
mph
0.00"
KCSQ 270255Z AUTO 18006KT 10SM CLR 02/M02 A2986 RMK AO2
8:35PM
VFR
36° 27° 29° 69
%
10
mi
1011.2
mb
None S 8
mph
0.00"
KCSQ 270235Z AUTO 18007KT 10SM CLR 02/M03 A2986 RMK AO2
8:15PM
VFR
36° 27° 31° 69
%
10
mi
1011.5
mb
None S 6
mph
0.00"
KCSQ 270215Z AUTO 17005KT 10SM CLR 02/M03 A2987 RMK AO2
7:55PM
VFR
36° 27° 30° 69
%
10
mi
1011.5
mb
None S 7
mph
0.00"
KCSQ 270155Z AUTO 17006KT 10SM CLR 02/M03 A2987 RMK AO2
7:35PM
VFR
37° 27° 32° 65
%
10
mi
1011.5
mb
None SSE 7
mph
0.00"
KCSQ 270135Z AUTO 16006KT 10SM CLR 03/M03 A2987 RMK AO2
7:15PM
VFR
37° 27° 32° 65
%
10
mi
1011.9
mb
None S 7
mph
0.00"
KCSQ 270115Z AUTO 17006KT 10SM CLR 03/M03 A2988 RMK AO2
6:55PM
VFR
36° 27° 28° 69
%
10
mi
1012.2
mb
None S 10
mph
0.00"
KCSQ 270055Z AUTO 18009KT 10SM CLR 02/M03 A2989 RMK AO2
6:35PM
VFR
37° 27° 32° 65
%
10
mi
1012.2
mb
None SSE 7
mph
0.00"
KCSQ 270035Z AUTO 16006KT 10SM CLR 03/M03 A2989 RMK AO2
6:15PM
VFR
36° 25° 29° 64
%
10
mi
1012.5
mb
None S 9
mph
0.00"
KCSQ 270015Z AUTO 18008KT 10SM CLR 02/M04 A2990 RMK AO2
5:55PM
VFR
37° 27° 32° 65
%
10
mi
1012.5
mb
None S 7
mph
0.00"
KCSQ 262355Z AUTO 17006KT 10SM CLR 03/M03 A2990 RMK AO2
Click here to show this page without METARs/TAFs included